createdAt,value
2023-01-05T00:00:00.994Z,2.07
2023-01-05T00:05:03.095Z,1.57
2023-01-05T00:10:25.030Z,2.17
2023-01-05T00:15:45.442Z,1.73
2023-01-05T00:21:06.683Z,1.70
2023-01-05T00:26:08.254Z,1.90
2023-01-05T00:31:09.853Z,1.70
2023-01-05T00:36:11.491Z,2.83
2023-01-05T00:41:13.042Z,2.20
2023-01-05T00:46:14.665Z,2.50
2023-01-05T00:51:16.243Z,1.97
2023-01-05T00:56:17.841Z,1.80
2023-01-05T01:01:19.804Z,2.53
2023-01-05T01:06:21.520Z,1.63
2023-01-05T01:11:23.168Z,1.73
2023-01-05T01:16:24.788Z,1.77
2023-01-05T01:21:26.635Z,1.83
2023-01-05T01:26:28.255Z,2.17
2023-01-05T01:31:31.035Z,2.10
2023-01-05T01:36:32.843Z,1.80
2023-01-05T01:41:34.583Z,2.10
2023-01-05T01:46:37.903Z,2.67
2023-01-05T01:51:44.693Z,1.60
2023-01-05T01:56:51.619Z,1.93
2023-01-05T02:01:56.323Z,2.50
2023-01-05T02:06:59.138Z,2.67
2023-01-05T02:12:11.396Z,2.30
2023-01-05T02:17:25.860Z,2.40
2023-01-05T02:22:41.174Z,2.30
2023-01-05T02:27:49.883Z,2.10
2023-01-05T02:33:25.745Z,2.27
2023-01-05T02:38:37.565Z,2.13
2023-01-05T02:43:39.771Z,2.60
2023-01-05T02:48:42.211Z,2.60
2023-01-05T02:53:48.212Z,2.37
2023-01-05T02:59:08.566Z,1.83
2023-01-05T03:04:14.491Z,1.93
2023-01-05T03:09:20.097Z,2.60
2023-01-05T03:14:29.029Z,1.80
2023-01-05T03:19:36.913Z,1.80
2023-01-05T03:24:59.038Z,2.20
2023-01-05T03:30:19.831Z,2.00
2023-01-05T03:35:30.466Z,2.60
2023-01-05T03:40:35.070Z,2.07
2023-01-05T03:45:40.635Z,2.33
2023-01-05T03:50:44.908Z,2.33
2023-01-05T03:55:49.555Z,1.90
2023-01-05T04:00:51.522Z,1.77
2023-01-05T04:05:56.069Z,2.00
2023-01-05T04:11:12.831Z,2.33
2023-01-05T04:16:14.752Z,1.90
2023-01-05T04:21:17.428Z,1.93
2023-01-05T04:26:19.765Z,2.40
2023-01-05T04:31:24.558Z,2.50
2023-01-05T04:36:29.536Z,2.23
2023-01-05T04:41:33.001Z,3.37
2023-01-05T04:46:34.824Z,2.37
2023-01-05T04:51:37.610Z,2.63
2023-01-05T04:56:42.100Z,2.33
2023-01-05T05:01:44.570Z,2.10
2023-01-05T05:06:48.066Z,2.20
2023-01-05T05:11:50.655Z,1.90
2023-01-05T05:16:55.930Z,2.10
2023-01-05T05:21:57.590Z,2.30
2023-01-05T05:27:00.661Z,2.80
2023-01-05T05:32:02.195Z,2.73
2023-01-05T05:37:03.764Z,2.33
2023-01-05T05:42:05.360Z,2.47
2023-01-05T05:47:07.020Z,2.67
2023-01-05T05:52:08.622Z,2.93
2023-01-05T05:57:10.211Z,2.17
2023-01-05T06:02:11.905Z,2.50
2023-01-05T06:07:13.529Z,3.10
2023-01-05T06:12:15.230Z,2.67
2023-01-05T06:17:17.536Z,3.40
2023-01-05T06:22:19.058Z,2.23
2023-01-05T06:27:20.739Z,3.03
2023-01-05T06:32:22.312Z,2.27
2023-01-05T06:37:23.849Z,2.43
2023-01-05T06:42:25.610Z,2.70
2023-01-05T06:47:27.361Z,2.77
2023-01-05T06:52:29.083Z,2.63
2023-01-05T06:57:30.773Z,2.27
2023-01-05T07:02:32.942Z,2.17
2023-01-05T07:07:34.699Z,2.30
2023-01-05T07:12:36.286Z,2.10
2023-01-05T07:17:38.115Z,2.40
2023-01-05T07:22:39.767Z,2.20
2023-01-05T07:27:41.342Z,2.90
2023-01-05T07:32:42.901Z,3.17
2023-01-05T07:37:44.510Z,2.67
2023-01-05T07:42:50.962Z,2.10
2023-01-05T07:47:52.644Z,2.60
2023-01-05T07:52:54.286Z,2.20
2023-01-05T07:57:55.850Z,2.20
2023-01-05T08:02:57.479Z,2.70
2023-01-05T08:07:59.053Z,2.17
2023-01-05T08:13:22.601Z,2.67
2023-01-05T08:18:24.209Z,2.50
2023-01-05T08:23:27.499Z,3.00
2023-01-05T08:28:35.274Z,2.43
2023-01-05T08:33:37.182Z,2.67
2023-01-05T08:38:38.807Z,2.40
2023-01-05T08:43:40.855Z,2.67
2023-01-05T08:48:42.517Z,3.43
2023-01-05T08:53:44.796Z,2.63
2023-01-05T08:58:46.466Z,2.90
2023-01-05T09:03:48.287Z,2.80
2023-01-05T09:08:49.921Z,3.00
2023-01-05T09:13:56.624Z,3.53
2023-01-05T09:18:59.286Z,2.77
2023-01-05T09:24:00.901Z,3.20
2023-01-05T09:29:02.467Z,2.53
2023-01-05T09:34:04.052Z,3.53
2023-01-05T09:39:06.239Z,3.07
2023-01-05T09:44:19.848Z,2.20
2023-01-05T09:49:23.291Z,3.47
2023-01-05T09:54:27.693Z,3.73
2023-01-05T09:59:35.682Z,3.47
2023-01-05T10:04:37.377Z,3.10
2023-01-05T10:09:39.644Z,4.03
2023-01-05T10:14:50.858Z,2.87
2023-01-05T10:19:52.890Z,2.90
2023-01-05T10:25:06.615Z,3.87
2023-01-05T10:30:25.932Z,2.90
2023-01-05T10:36:00.648Z,2.87
2023-01-05T10:41:25.786Z,3.30
2023-01-05T10:46:35.008Z,3.33
2023-01-05T10:51:39.705Z,2.37
2023-01-05T10:56:41.230Z,2.90
2023-01-05T11:01:45.879Z,2.90
2023-01-05T11:06:48.044Z,2.20
2023-01-05T11:11:58.819Z,2.93
2023-01-05T11:17:03.692Z,2.67
2023-01-05T11:22:36.052Z,2.50
2023-01-05T11:27:37.679Z,3.10
2023-01-05T11:32:41.030Z,3.40
2023-01-05T11:37:44.437Z,2.77
2023-01-05T11:42:46.300Z,2.73
2023-01-05T11:47:50.755Z,2.53
2023-01-05T11:52:54.855Z,2.90
2023-01-05T11:58:19.139Z,2.50
2023-01-05T12:03:31.587Z,2.87
2023-01-05T12:08:43.996Z,2.57
2023-01-05T12:14:27.526Z,2.30
2023-01-05T12:19:38.043Z,2.20
2023-01-05T12:24:39.636Z,2.77
2023-01-05T12:35:24.855Z,2.77
2023-01-05T12:40:38.336Z,2.50
2023-01-05T12:45:49.073Z,2.53
2023-01-05T12:51:09.016Z,2.40
2023-01-05T12:56:27.828Z,2.53
2023-01-05T13:01:31.533Z,2.90
2023-01-05T13:06:41.302Z,2.00
2023-01-05T13:11:53.676Z,2.53
2023-01-05T13:17:01.234Z,2.20
2023-01-05T13:22:06.905Z,2.80
2023-01-05T13:27:08.913Z,3.13
2023-01-05T13:32:41.503Z,2.40
2023-01-05T13:38:08.062Z,2.70
2023-01-05T13:43:24.498Z,2.40
2023-01-05T13:48:58.076Z,2.40
2023-01-05T13:54:13.256Z,2.30
2023-01-05T13:59:34.656Z,2.30
2023-01-05T14:04:37.154Z,2.40
2023-01-05T14:09:58.970Z,2.20
2023-01-05T14:15:03.679Z,2.93
2023-01-05T14:20:34.044Z,2.43
2023-01-05T14:25:38.684Z,2.30
2023-01-05T14:30:40.282Z,2.70
2023-01-05T14:35:42.744Z,2.90
2023-01-05T14:40:46.897Z,2.60
2023-01-05T14:46:21.132Z,2.63
2023-01-05T14:51:26.334Z,2.83
2023-01-05T14:56:29.970Z,2.47
2023-01-05T15:01:46.345Z,2.70
2023-01-05T15:06:56.573Z,2.93
2023-01-05T15:12:36.108Z,2.40
2023-01-05T15:24:14.060Z,2.77
2023-01-05T15:36:01.490Z,2.53
2023-01-05T15:41:46.065Z,2.80
2023-01-05T15:46:48.267Z,2.63
2023-01-05T15:51:52.264Z,2.60
2023-01-05T15:56:54.291Z,2.77
2023-01-05T16:01:56.055Z,2.53
2023-01-05T16:07:00.253Z,2.40
2023-01-05T16:12:09.469Z,3.17
2023-01-05T16:17:15.503Z,2.60
2023-01-05T16:22:21.872Z,3.00
2023-01-05T16:27:23.532Z,2.87
2023-01-05T16:32:54.924Z,2.73
2023-01-05T16:38:09.715Z,3.13
2023-01-05T16:43:30.001Z,2.87
2023-01-05T16:48:40.423Z,3.20
2023-01-05T16:53:44.261Z,2.90
2023-01-05T16:58:46.340Z,2.83
2023-01-05T17:03:48.143Z,3.53
2023-01-05T17:08:49.974Z,3.97
2023-01-05T17:13:52.838Z,3.50
2023-01-05T17:18:54.380Z,3.63
2023-01-05T17:23:57.935Z,3.50
2023-01-05T17:34:02.938Z,4.10
2023-01-05T17:39:04.942Z,3.70
2023-01-05T17:44:06.603Z,3.83
2023-01-05T17:49:20.544Z,3.37
2023-01-05T17:54:22.112Z,3.53
2023-01-05T17:59:23.689Z,3.33
2023-01-05T18:04:26.358Z,3.10
2023-01-05T18:09:29.148Z,3.87
2023-01-05T18:14:30.735Z,2.93
2023-01-05T18:19:33.509Z,6.27
2023-01-05T18:24:35.291Z,6.00
2023-01-05T18:29:38.016Z,4.67
2023-01-05T18:34:41.251Z,3.87
2023-01-05T18:39:44.594Z,3.90
2023-01-05T18:44:46.143Z,3.20
2023-01-05T18:49:47.732Z,3.30
2023-01-05T18:54:50.231Z,3.57
2023-01-05T18:59:53.028Z,3.37
2023-01-05T19:04:55.903Z,3.00
2023-01-05T19:09:57.558Z,2.60
2023-01-05T19:14:59.295Z,3.07
2023-01-05T19:20:01.900Z,2.53
2023-01-05T19:25:05.582Z,2.10
2023-01-05T19:30:07.793Z,2.13
2023-01-05T19:35:09.840Z,1.97
2023-01-05T19:40:11.873Z,2.10
2023-01-05T19:45:13.527Z,1.93
2023-01-05T19:50:15.231Z,1.90
2023-01-05T19:55:16.928Z,2.33
2023-01-05T20:00:18.697Z,2.37
2023-01-05T20:05:20.325Z,2.90
2023-01-05T20:10:22.985Z,2.93
2023-01-05T20:15:24.498Z,2.70
2023-01-05T20:20:26.046Z,1.80
2023-01-05T20:25:27.641Z,1.83
2023-01-05T20:30:29.351Z,1.70
2023-01-05T20:35:31.115Z,1.77
2023-01-05T20:40:32.640Z,2.00
2023-01-05T20:45:34.201Z,1.60
2023-01-05T20:50:35.722Z,1.40
2023-01-05T20:55:39.386Z,1.80
2023-01-05T21:01:09.774Z,1.90
2023-01-05T21:06:04.136Z,1.80
2023-01-05T21:11:07.085Z,2.17
2023-01-05T21:16:10.415Z,1.90
2023-01-05T21:21:14.425Z,1.93
2023-01-05T21:26:16.894Z,1.60
2023-01-05T21:31:21.133Z,1.70
2023-01-05T21:36:29.298Z,1.67
2023-01-05T21:41:54.213Z,1.90
2023-01-05T21:46:58.352Z,1.93
2023-01-05T21:52:18.711Z,1.90
2023-01-05T21:57:21.139Z,1.77
2023-01-05T22:02:22.682Z,1.83
2023-01-05T22:07:24.302Z,2.00
2023-01-05T22:12:26.467Z,1.70
2023-01-05T22:17:28.195Z,1.40
2023-01-05T22:22:29.688Z,1.60
2023-01-05T22:27:31.283Z,1.77
2023-01-05T22:32:33.104Z,1.63
2023-01-05T22:37:34.928Z,1.87
2023-01-05T22:42:37.605Z,1.50
2023-01-05T22:47:39.204Z,1.73
2023-01-05T22:52:40.746Z,1.70
2023-01-05T22:57:42.513Z,1.13
2023-01-05T23:02:44.091Z,1.60
2023-01-05T23:07:45.917Z,1.30
2023-01-05T23:12:47.426Z,1.60
2023-01-05T23:17:49.243Z,1.40
2023-01-05T23:22:50.949Z,1.50
2023-01-05T23:27:54.010Z,1.90
2023-01-05T23:32:55.686Z,1.70
2023-01-05T23:37:57.219Z,1.80
2023-01-05T23:42:58.725Z,1.90
2023-01-05T23:48:00.339Z,1.80
2023-01-05T23:53:03.597Z,2.00
2023-01-05T23:58:05.606Z,1.80
